createdAt,value
2024-04-26T00:01:08.936Z,19.50
2024-04-26T00:03:54.529Z,19.08
2024-04-26T00:06:45.528Z,16.05
2024-04-26T00:09:30.777Z,18.05
2024-04-26T00:12:16.745Z,16.27
2024-04-26T00:15:02.303Z,17.35
2024-04-26T00:17:47.896Z,19.27
2024-04-26T00:20:33.778Z,18.30
2024-04-26T00:23:19.017Z,20.30
2024-04-26T00:26:08.295Z,20.45
2024-04-26T00:28:52.958Z,21.83
2024-04-26T00:31:38.430Z,20.15
2024-04-26T00:34:23.388Z,21.13
2024-04-26T00:37:08.392Z,21.17
2024-04-26T00:39:53.508Z,21.35
2024-04-26T00:42:39.787Z,20.25
2024-04-26T00:45:25.150Z,21.75
2024-04-26T00:48:10.360Z,23.15
2024-04-26T00:50:55.812Z,21.30
2024-04-26T00:53:41.856Z,22.23
2024-04-26T00:56:27.628Z,21.55
2024-04-26T00:59:16.353Z,21.52
2024-04-26T01:02:01.599Z,20.38
2024-04-26T01:04:46.712Z,20.65
2024-04-26T01:07:32.183Z,20.52
2024-04-26T01:10:18.379Z,20.13
2024-04-26T01:13:07.660Z,23.65
2024-04-26T01:15:53.016Z,21.50
2024-04-26T01:18:38.237Z,23.50
2024-04-26T01:21:24.326Z,24.50
2024-04-26T01:24:10.251Z,24.95
2024-04-26T01:26:55.349Z,28.30
2024-04-26T01:29:40.946Z,28.13
2024-04-26T01:32:26.070Z,28.45
2024-04-26T01:35:11.065Z,27.85
2024-04-26T01:37:56.615Z,27.42
2024-04-26T01:40:41.911Z,21.20
2024-04-26T01:43:27.189Z,23.83
2024-04-26T01:46:12.882Z,20.80
2024-04-26T01:48:58.239Z,21.73
2024-04-26T01:51:43.219Z,20.45
2024-04-26T01:54:28.568Z,20.95
2024-04-26T01:57:13.522Z,21.08
2024-04-26T01:59:58.763Z,20.02
2024-04-26T02:02:44.310Z,21.95
2024-04-26T02:05:29.411Z,24.52
2024-04-26T02:08:14.844Z,23.77
2024-04-26T02:11:00.190Z,22.88
2024-04-26T02:13:45.406Z,19.73
2024-04-26T02:16:30.637Z,21.98
2024-04-26T02:19:15.839Z,22.20
2024-04-26T02:22:00.964Z,23.02
2024-04-26T02:24:45.822Z,22.83
2024-04-26T02:27:31.242Z,23.95
2024-04-26T02:30:16.097Z,22.42
2024-04-26T02:33:01.496Z,24.05
2024-04-26T02:35:47.424Z,26.58
2024-04-26T02:38:32.756Z,20.38
2024-04-26T02:41:18.111Z,23.10
2024-04-26T02:44:05.015Z,21.60
2024-04-26T02:46:50.448Z,20.35
2024-04-26T02:49:35.827Z,20.58
2024-04-26T02:52:21.304Z,20.63
2024-04-26T02:55:06.552Z,19.65
2024-04-26T02:57:51.989Z,20.73
2024-04-26T03:00:37.565Z,19.17
2024-04-26T03:03:23.055Z,18.83
2024-04-26T03:06:11.215Z,23.25
2024-04-26T03:08:56.555Z,18.73
2024-04-26T03:11:42.226Z,18.98
2024-04-26T03:14:27.563Z,22.42
2024-04-26T03:17:12.988Z,18.95
2024-04-26T03:19:58.582Z,17.00
2024-04-26T03:22:45.893Z,18.42
2024-04-26T03:25:31.299Z,19.90
2024-04-26T03:28:17.141Z,18.67
2024-04-26T03:31:02.177Z,19.25
2024-04-26T03:33:47.566Z,16.00
2024-04-26T03:36:32.976Z,17.90
2024-04-26T03:39:18.248Z,14.93
2024-04-26T03:42:03.647Z,15.65
2024-04-26T03:44:49.130Z,13.63
2024-04-26T03:47:34.414Z,15.68
2024-04-26T03:50:21.348Z,14.10
2024-04-26T03:53:06.710Z,15.13
2024-04-26T03:55:53.091Z,11.95
2024-04-26T03:58:42.447Z,14.30
2024-04-26T04:01:28.159Z,14.32
2024-04-26T04:04:13.466Z,15.20
2024-04-26T04:06:58.711Z,12.30
2024-04-26T04:09:44.018Z,12.45
2024-04-26T04:12:29.809Z,13.02
2024-04-26T04:15:15.529Z,13.18
2024-04-26T04:18:01.117Z,13.48
2024-04-26T04:20:46.691Z,13.40
2024-04-26T04:23:32.129Z,11.60
2024-04-26T04:26:17.751Z,13.80
2024-04-26T04:29:02.517Z,12.40
2024-04-26T04:31:47.648Z,14.43
2024-04-26T04:34:32.960Z,12.05
2024-04-26T04:37:18.662Z,11.85
2024-04-26T04:40:04.824Z,11.48
2024-04-26T04:42:50.062Z,11.35
2024-04-26T04:45:35.563Z,11.68
2024-04-26T04:48:22.963Z,11.27
2024-04-26T04:51:08.615Z,13.77
2024-04-26T04:53:54.593Z,10.57
2024-04-26T04:56:42.242Z,10.35
2024-04-26T04:59:27.603Z,10.52
2024-04-26T05:02:13.464Z,11.00
2024-04-26T05:04:58.831Z,9.82
2024-04-26T05:08:03.483Z,9.82
2024-04-26T05:10:51.684Z,8.65
2024-04-26T05:13:39.979Z,10.75
2024-04-26T05:16:32.893Z,8.70
2024-04-26T05:19:18.402Z,10.13
2024-04-26T05:22:04.149Z,9.43
2024-04-26T05:24:49.974Z,11.65
2024-04-26T05:28:08.784Z,9.57
2024-04-26T05:30:51.067Z,8.82
2024-04-26T05:33:36.623Z,8.40
2024-04-26T05:36:21.804Z,8.55
2024-04-26T05:39:07.529Z,9.55
2024-04-26T05:41:52.854Z,9.30
2024-04-26T05:44:39.230Z,9.05
2024-04-26T05:47:24.769Z,8.65
2024-04-26T05:50:12.564Z,7.88
2024-04-26T05:53:03.208Z,8.10
2024-04-26T05:55:48.725Z,8.27
2024-04-26T05:58:35.483Z,7.70
2024-04-26T06:01:23.532Z,9.23
2024-04-26T06:04:11.664Z,7.15
2024-04-26T06:07:09.348Z,8.52
2024-04-26T06:10:04.869Z,7.22
2024-04-26T06:12:55.303Z,7.80
2024-04-26T06:15:41.179Z,8.68
2024-04-26T06:18:26.774Z,6.45
2024-04-26T06:21:11.958Z,8.75
2024-04-26T06:23:57.151Z,6.85
2024-04-26T06:26:43.049Z,6.82
2024-04-26T06:29:31.846Z,7.10
2024-04-26T06:32:24.249Z,6.35
2024-04-26T06:35:14.171Z,7.85
2024-04-26T06:37:59.657Z,7.05
2024-04-26T06:40:49.034Z,6.70
2024-04-26T06:43:38.749Z,6.32
2024-04-26T06:46:24.183Z,6.68
2024-04-26T06:49:15.051Z,6.35
2024-04-26T06:52:01.129Z,4.82
2024-04-26T06:54:51.926Z,6.07
2024-04-26T07:05:38.864Z,8.52
2024-04-26T07:08:52.649Z,5.32
2024-04-26T07:15:11.500Z,7.55
2024-04-26T07:17:58.491Z,5.50
2024-04-26T07:20:44.243Z,4.55
2024-04-26T07:23:38.116Z,4.90
2024-04-26T07:26:38.085Z,4.82
2024-04-26T07:29:29.185Z,6.53
2024-04-26T07:32:55.068Z,5.85
2024-04-26T07:35:45.753Z,4.75
2024-04-26T07:38:33.992Z,5.47
2024-04-26T07:41:21.356Z,5.10
2024-04-26T07:44:08.792Z,4.90
2024-04-26T07:46:55.467Z,5.53
2024-04-26T07:53:01.043Z,5.82
2024-04-26T07:55:47.864Z,5.57
2024-04-26T07:58:38.098Z,6.20
2024-04-26T08:01:25.887Z,7.07
2024-04-26T08:04:25.399Z,6.22
2024-04-26T08:07:16.087Z,6.22
2024-04-26T08:10:04.868Z,8.00
2024-04-26T08:12:51.019Z,9.23
2024-04-26T08:15:37.799Z,8.15
2024-04-26T08:18:24.087Z,9.25
2024-04-26T08:21:09.754Z,8.00
2024-04-26T08:23:57.447Z,21.67
2024-04-26T08:26:42.780Z,13.40
2024-04-26T08:29:51.587Z,8.73
2024-04-26T08:33:06.824Z,7.70
2024-04-26T08:35:56.846Z,6.75
2024-04-26T08:38:44.105Z,5.72
2024-04-26T08:41:48.171Z,6.07
2024-04-26T08:45:01.845Z,6.10
2024-04-26T08:51:09.650Z,4.35
2024-04-26T08:53:55.970Z,5.43
2024-04-26T08:56:42.359Z,5.35
2024-04-26T08:59:35.014Z,5.05
2024-04-26T09:02:21.129Z,7.03
2024-04-26T09:05:07.965Z,3.78
2024-04-26T09:08:03.648Z,4.38
2024-04-26T09:10:49.526Z,6.18
2024-04-26T09:14:26.674Z,5.75
2024-04-26T09:17:14.542Z,3.85
2024-04-26T09:20:00.235Z,5.18
2024-04-26T09:22:45.807Z,4.70
2024-04-26T09:25:47.171Z,4.30
2024-04-26T09:28:40.674Z,3.85
2024-04-26T09:31:27.313Z,9.27
2024-04-26T09:34:13.340Z,3.70
2024-04-26T09:37:00.135Z,3.58
2024-04-26T09:39:45.730Z,3.25
2024-04-26T09:42:33.574Z,3.72
2024-04-26T09:45:19.322Z,4.10
2024-04-26T09:48:11.996Z,3.95
2024-04-26T09:50:59.459Z,5.07
2024-04-26T09:53:46.193Z,4.60
2024-04-26T09:56:31.276Z,4.47
2024-04-26T09:59:17.482Z,5.18
2024-04-26T10:02:09.077Z,4.18
2024-04-26T10:04:54.845Z,5.80
2024-04-26T10:07:42.807Z,4.35
2024-04-26T10:10:32.967Z,3.95
2024-04-26T10:13:20.370Z,4.00
2024-04-26T10:16:05.913Z,6.03
2024-04-26T10:18:51.022Z,5.13
2024-04-26T10:21:36.520Z,4.63
2024-04-26T10:24:22.549Z,4.70
2024-04-26T10:27:08.301Z,4.03
2024-04-26T10:29:54.477Z,4.03
2024-04-26T10:32:40.197Z,7.22
2024-04-26T10:35:25.622Z,4.25
2024-04-26T10:38:10.887Z,4.07
2024-04-26T10:40:56.002Z,3.70
2024-04-26T10:43:42.664Z,4.80
2024-04-26T10:46:28.398Z,3.58
2024-04-26T10:49:13.942Z,3.38
2024-04-26T10:52:04.385Z,3.50
2024-04-26T10:54:51.327Z,3.00
2024-04-26T10:57:36.316Z,5.63
2024-04-26T11:00:21.537Z,3.40
2024-04-26T11:03:11.223Z,5.13
2024-04-26T11:05:56.595Z,3.17
2024-04-26T11:08:42.507Z,5.10
2024-04-26T11:11:28.251Z,3.72
2024-04-26T11:14:13.641Z,4.30
2024-04-26T11:16:59.554Z,2.90
2024-04-26T11:19:46.942Z,5.43
2024-04-26T11:22:32.473Z,5.05
2024-04-26T11:25:17.777Z,3.70
2024-04-26T11:28:03.031Z,5.03
2024-04-26T11:30:48.259Z,5.28
2024-04-26T11:33:42.033Z,3.75
2024-04-26T11:36:30.296Z,4.20
2024-04-26T11:39:15.658Z,5.13
2024-04-26T11:42:01.053Z,4.07
2024-04-26T11:44:46.466Z,3.72
2024-04-26T11:47:31.716Z,6.43
2024-04-26T11:50:17.281Z,4.65
2024-04-26T11:53:02.450Z,3.42
2024-04-26T11:55:47.754Z,3.65
2024-04-26T11:58:33.758Z,4.85
2024-04-26T12:01:18.950Z,4.32
2024-04-26T12:04:04.278Z,3.63
2024-04-26T12:06:50.035Z,3.33
2024-04-26T12:09:35.295Z,3.83
2024-04-26T12:12:20.873Z,3.92
2024-04-26T12:15:06.669Z,4.30
2024-04-26T12:17:51.976Z,2.90
2024-04-26T12:20:37.724Z,3.75
2024-04-26T12:23:23.031Z,5.05
2024-04-26T12:26:20.975Z,4.10
2024-04-26T12:29:09.160Z,3.33
2024-04-26T12:31:56.594Z,3.50
2024-04-26T12:34:42.374Z,4.15
2024-04-26T12:37:28.597Z,3.47
2024-04-26T12:40:14.149Z,4.15
2024-04-26T12:43:01.435Z,3.33
2024-04-26T12:45:47.154Z,4.25
2024-04-26T12:48:32.622Z,4.00
2024-04-26T12:51:18.282Z,4.03
2024-04-26T12:54:03.483Z,4.07
2024-04-26T12:56:48.711Z,4.40
2024-04-26T12:59:35.177Z,2.67
2024-04-26T13:02:20.772Z,3.17
2024-04-26T13:05:06.046Z,3.38
2024-04-26T13:07:51.548Z,3.53
2024-04-26T13:10:36.663Z,2.90
2024-04-26T13:13:22.454Z,3.13
2024-04-26T13:16:14.143Z,3.10
2024-04-26T13:18:59.633Z,3.42
2024-04-26T13:21:45.871Z,3.72
2024-04-26T13:24:30.997Z,3.25
2024-04-26T13:27:16.572Z,4.53
2024-04-26T13:30:01.864Z,3.15
2024-04-26T13:32:49.680Z,3.40
2024-04-26T13:35:35.814Z,3.42
2024-04-26T13:38:21.231Z,5.32
2024-04-26T13:41:11.921Z,2.67
2024-04-26T13:43:57.183Z,3.25
2024-04-26T13:46:42.942Z,3.78
2024-04-26T13:49:30.476Z,3.05
2024-04-26T13:52:19.303Z,2.80
2024-04-26T13:55:04.816Z,2.85
2024-04-26T13:57:50.449Z,3.33
2024-04-26T14:00:38.593Z,4.10
2024-04-26T14:03:24.182Z,3.13
2024-04-26T14:06:10.235Z,3.97
2024-04-26T14:08:55.636Z,3.20
2024-04-26T14:11:44.201Z,3.13
2024-04-26T14:14:29.627Z,3.55
2024-04-26T14:17:14.863Z,3.80
2024-04-26T14:20:00.181Z,3.17
2024-04-26T14:22:45.558Z,3.92
2024-04-26T14:25:30.692Z,3.20
2024-04-26T14:28:15.847Z,2.58
2024-04-26T14:31:00.987Z,3.08
2024-04-26T14:33:49.533Z,3.22
2024-04-26T14:36:34.894Z,3.45
2024-04-26T14:39:21.481Z,5.47
2024-04-26T14:42:09.221Z,4.28
2024-04-26T14:44:54.608Z,4.07
2024-04-26T14:47:40.540Z,3.38
2024-04-26T14:50:26.014Z,4.20
2024-04-26T14:53:11.242Z,4.15
2024-04-26T14:55:56.854Z,3.97
2024-04-26T14:58:42.515Z,3.95
2024-04-26T15:01:27.844Z,3.35
2024-04-26T15:04:13.735Z,3.17
2024-04-26T15:06:58.765Z,3.40
2024-04-26T15:09:48.094Z,3.30
2024-04-26T15:12:33.016Z,4.03
2024-04-26T15:15:18.462Z,4.25
2024-04-26T15:18:03.815Z,3.30
2024-04-26T15:20:49.215Z,4.13
2024-04-26T15:23:34.667Z,4.07
2024-04-26T15:26:19.697Z,3.55
2024-04-26T15:29:05.114Z,4.78
2024-04-26T15:31:50.177Z,3.70
2024-04-26T15:34:35.647Z,3.83
2024-04-26T15:37:21.153Z,4.15
2024-04-26T15:40:07.048Z,3.95
2024-04-26T15:42:52.396Z,2.83
2024-04-26T15:45:37.879Z,3.90
2024-04-26T15:48:22.811Z,4.40
2024-04-26T15:51:08.057Z,3.25
2024-04-26T15:53:52.809Z,3.22
2024-04-26T15:56:37.987Z,3.60
2024-04-26T15:59:23.280Z,3.53
2024-04-26T16:02:09.100Z,3.00
2024-04-26T16:04:54.227Z,4.00
2024-04-26T16:07:39.687Z,3.42
2024-04-26T16:10:25.002Z,3.22
2024-04-26T16:13:10.431Z,3.78
2024-04-26T16:15:55.737Z,3.22
2024-04-26T16:18:42.989Z,3.95
2024-04-26T16:21:28.094Z,3.42
2024-04-26T16:24:13.256Z,3.70
2024-04-26T16:26:58.468Z,3.90
2024-04-26T16:29:43.317Z,3.30
2024-04-26T16:32:30.476Z,3.67
2024-04-26T16:35:19.670Z,4.28
2024-04-26T16:38:04.850Z,3.45
2024-04-26T16:40:50.327Z,3.40
2024-04-26T16:43:35.359Z,3.25
2024-04-26T16:46:21.658Z,3.45
2024-04-26T16:49:06.771Z,3.75
2024-04-26T16:51:51.928Z,3.67
2024-04-26T16:54:37.237Z,4.60
2024-04-26T16:57:22.722Z,4.88
2024-04-26T17:00:10.990Z,5.70
2024-04-26T17:02:56.081Z,6.00
2024-04-26T17:05:42.476Z,8.27
2024-04-26T17:08:27.653Z,6.68
2024-04-26T17:11:12.696Z,5.65
2024-04-26T17:14:01.947Z,5.55
2024-04-26T17:16:47.742Z,5.68
2024-04-26T17:19:35.624Z,8.57
2024-04-26T17:22:21.036Z,6.50
2024-04-26T17:25:06.416Z,6.40
2024-04-26T17:27:51.446Z,5.15
2024-04-26T17:30:36.346Z,5.63
2024-04-26T17:33:21.942Z,5.57
2024-04-26T17:36:07.358Z,4.82
2024-04-26T17:38:53.151Z,6.45
2024-04-26T17:41:39.137Z,7.20
2024-04-26T17:44:24.121Z,6.03
2024-04-26T17:47:10.032Z,7.18
2024-04-26T17:49:56.997Z,6.07
2024-04-26T17:52:42.651Z,6.95
2024-04-26T17:55:27.891Z,10.27
2024-04-26T17:58:13.079Z,8.90
2024-04-26T18:00:58.242Z,7.03
2024-04-26T18:03:43.384Z,9.48
2024-04-26T18:06:28.948Z,10.82
2024-04-26T18:09:15.626Z,8.13
2024-04-26T18:12:01.108Z,12.25
2024-04-26T18:14:47.999Z,8.65
2024-04-26T18:17:34.278Z,8.65
2024-04-26T18:20:19.335Z,7.05
2024-04-26T18:23:04.939Z,7.07
2024-04-26T18:25:50.490Z,8.63
2024-04-26T18:28:39.572Z,8.50
2024-04-26T18:31:24.840Z,6.65
2024-04-26T18:34:10.374Z,5.78
2024-04-26T18:36:55.453Z,7.38
2024-04-26T18:39:40.616Z,6.93
2024-04-26T18:42:26.176Z,6.25
2024-04-26T18:45:11.148Z,7.30
2024-04-26T18:47:56.416Z,6.20
2024-04-26T18:50:41.562Z,6.18
2024-04-26T18:53:26.849Z,9.25
2024-04-26T18:56:13.490Z,6.13
2024-04-26T18:58:58.832Z,6.88
2024-04-26T19:01:44.254Z,6.88
2024-04-26T19:04:29.646Z,7.13
2024-04-26T19:07:15.014Z,6.20
2024-04-26T19:10:01.486Z,6.07
2024-04-26T19:12:46.707Z,7.68
2024-04-26T19:15:32.636Z,7.13
2024-04-26T19:18:17.790Z,9.30
2024-04-26T19:21:03.490Z,10.48
2024-04-26T19:23:49.004Z,9.15
2024-04-26T19:26:34.219Z,10.82
2024-04-26T19:29:19.213Z,9.50
2024-04-26T19:32:05.048Z,10.75
2024-04-26T19:34:50.440Z,13.85
2024-04-26T19:37:35.610Z,13.48
2024-04-26T19:40:20.756Z,19.00
2024-04-26T19:43:07.244Z,20.70
2024-04-26T19:45:52.414Z,20.42
2024-04-26T19:48:38.072Z,16.77
2024-04-26T19:51:23.469Z,18.25
2024-04-26T19:54:28.721Z,15.85
2024-04-26T19:57:13.593Z,16.42
2024-04-26T19:59:58.790Z,16.90
2024-04-26T20:02:48.028Z,16.20
2024-04-26T20:05:33.140Z,19.42
2024-04-26T20:08:18.332Z,16.45
2024-04-26T20:11:06.517Z,15.60
2024-04-26T20:13:51.723Z,15.75
2024-04-26T20:16:36.958Z,15.07
2024-04-26T20:19:22.137Z,13.82
2024-04-26T20:22:07.156Z,12.52
2024-04-26T20:24:52.271Z,11.27
2024-04-26T20:27:37.417Z,12.57
2024-04-26T20:30:22.479Z,12.73
2024-04-26T20:33:07.571Z,12.18
2024-04-26T20:35:55.873Z,13.65
2024-04-26T20:38:41.209Z,12.73
2024-04-26T20:41:28.564Z,12.55
2024-04-26T20:44:13.802Z,15.98
2024-04-26T20:46:59.079Z,11.55
2024-04-26T20:49:44.144Z,13.60
2024-04-26T20:52:30.996Z,17.90
2024-04-26T20:55:16.130Z,17.15
2024-04-26T20:58:01.400Z,20.52
2024-04-26T21:00:47.140Z,21.63
2024-04-26T21:03:32.577Z,17.20
2024-04-26T21:06:17.698Z,14.57
2024-04-26T21:09:03.011Z,16.30
2024-04-26T21:11:48.068Z,16.50
2024-04-26T21:14:33.273Z,17.10
2024-04-26T21:17:18.519Z,18.27
2024-04-26T21:20:05.182Z,17.58
2024-04-26T21:22:50.483Z,24.10
2024-04-26T21:25:35.833Z,33.42
2024-04-26T21:28:21.087Z,25.30
2024-04-26T21:31:06.556Z,23.33
2024-04-26T21:33:51.825Z,20.08
2024-04-26T21:36:40.967Z,18.98
2024-04-26T21:39:25.959Z,16.58
2024-04-26T21:42:11.313Z,17.08
2024-04-26T21:44:56.415Z,14.63
2024-04-26T21:47:41.711Z,16.13
2024-04-26T21:50:26.771Z,18.90
2024-04-26T21:53:11.967Z,19.17
2024-04-26T21:55:57.276Z,17.08
2024-04-26T21:58:42.408Z,17.75
2024-04-26T22:01:27.866Z,21.05
2024-04-26T22:04:13.338Z,19.83
2024-04-26T22:06:58.232Z,21.33
2024-04-26T22:09:43.754Z,20.30
2024-04-26T22:12:33.152Z,17.27
2024-04-26T22:15:19.461Z,17.60
2024-04-26T22:18:05.034Z,17.05
2024-04-26T22:20:50.337Z,20.50
2024-04-26T22:23:35.965Z,20.77
2024-04-26T22:26:21.242Z,22.63
2024-04-26T22:29:06.473Z,19.27
2024-04-26T22:31:51.814Z,20.85
2024-04-26T22:34:37.299Z,20.27
2024-04-26T22:37:22.888Z,21.33
2024-04-26T22:40:09.626Z,20.33
2024-04-26T22:42:54.921Z,20.55
2024-04-26T22:45:40.219Z,21.77
2024-04-26T22:48:25.479Z,21.02
2024-04-26T22:51:10.438Z,21.00
2024-04-26T22:53:57.306Z,21.23
2024-04-26T22:56:42.823Z,17.45
2024-04-26T22:59:29.244Z,17.23
2024-04-26T23:02:14.746Z,18.25
2024-04-26T23:05:00.482Z,16.60
2024-04-26T23:07:45.680Z,19.17
2024-04-26T23:10:30.988Z,20.35
2024-04-26T23:13:16.518Z,17.67
2024-04-26T23:16:01.746Z,18.33
2024-04-26T23:18:46.772Z,16.40
2024-04-26T23:21:32.860Z,17.33
2024-04-26T23:24:18.084Z,17.15
2024-04-26T23:27:03.482Z,15.60
2024-04-26T23:29:50.704Z,23.38
2024-04-26T23:32:36.671Z,23.58
2024-04-26T23:35:21.720Z,23.45
2024-04-26T23:38:06.887Z,21.23
2024-04-26T23:40:53.967Z,20.30
2024-04-26T23:43:39.324Z,21.35
2024-04-26T23:46:24.492Z,23.33
2024-04-26T23:49:09.921Z,25.42
2024-04-26T23:51:55.139Z,28.02
2024-04-26T23:54:40.671Z,30.17
2024-04-26T23:57:26.256Z,28.85
